Time;durP1;ratioP1;P1;durP2;ratioP2;P2;SDS_P1;SDS_P2;PMS_P1;PMS_P2;Temp;Humidity;BMP_temperature;BMP_pressure;BME280_temperature;BME280_humidity;BME280_pressure;Samples;Min_cycle;Max_cycle;Signal;HPM_P1;HPM_P2
2021/03/17 00:00:42;;;;;;;0.20;0.20;;;5.20;99.90;;;;;;4998285;28;20810;-87
2021/03/17 00:03:08;;;;;;;0.27;0.27;;;5.30;99.90;;;;;;5003323;28;20211;-87
2021/03/17 00:05:38;;;;;;;0.20;0.20;;;5.30;99.90;;;;;;4997767;28;20255;-87
2021/03/17 00:08:05;;;;;;;0.10;0.10;;;5.30;99.90;;;;;;5001141;28;20239;-87
2021/03/17 00:10:34;;;;;;;0.30;0.23;;;5.20;99.90;;;;;;4972435;28;20195;-87
2021/03/17 00:13:01;;;;;;;0.10;0.10;;;5.20;99.90;;;;;;4987235;28;20226;-86
2021/03/17 00:15:29;;;;;;;0.10;0.10;;;5.20;99.90;;;;;;4978935;28;20305;-87
2021/03/17 00:17:55;;;;;;;0.20;0.20;;;5.20;99.90;;;;;;4994314;28;20223;-87
2021/03/17 00:20:26;;;;;;;0.10;0.10;;;5.30;99.90;;;;;;4977397;28;20705;-87
2021/03/17 00:22:54;;;;;;;0.10;0.10;;;5.30;99.90;;;;;;5023487;28;20186;-87
2021/03/17 00:25:27;;;;;;;0.27;0.27;;;5.30;99.90;;;;;;5022005;28;20202;-87
2021/03/17 00:27:56;;;;;;;0.27;0.27;;;5.20;99.90;;;;;;5021821;28;20218;-87
2021/03/17 00:30:23;;;;;;;0.10;0.10;;;5.20;99.90;;;;;;4978280;28;20322;-87
2021/03/17 00:32:49;;;;;;;0.10;0.10;;;5.20;99.90;;;;;;5011399;28;20228;-87
2021/03/17 00:35:15;;;;;;;0.40;0.30;;;5.20;99.90;;;;;;5010662;28;20242;-87
2021/03/17 00:37:41;;;;;;;0.20;0.20;;;5.20;99.90;;;;;;5012542;28;20182;-87
2021/03/17 00:40:07;;;;;;;1.80;1.70;;;5.20;99.90;;;;;;5026559;28;20268;-87
2021/03/17 00:42:32;;;;;;;0.10;0.10;;;5.20;99.90;;;;;;5026102;28;20218;-87
2021/03/17 00:44:58;;;;;;;0.10;0.10;;;5.20;99.90;;;;;;5026954;28;20217;-87
2021/03/17 00:47:25;;;;;;;1.73;0.23;;;5.20;99.90;;;;;;5010259;28;20218;-87
2021/03/17 00:49:50;;;;;;;0.13;0.13;;;5.10;99.90;;;;;;4995369;28;20183;-87
2021/03/17 00:52:16;;;;;;;0.23;0.23;;;5.20;99.90;;;;;;5010305;28;20217;-87
2021/03/17 00:54:42;;;;;;;0.10;0.10;;;5.10;99.90;;;;;;4993451;28;20215;-88
2021/03/17 00:57:07;;;;;;;0.20;0.20;;;5.00;99.90;;;;;;5010834;28;20217;-87
2021/03/17 00:59:33;;;;;;;0.37;0.37;;;5.10;99.90;;;;;;5006080;28;20227;-87
2021/03/17 01:01:59;;;;;;;1.93;0.23;;;5.10;99.90;;;;;;5008328;28;20175;-87
2021/03/17 01:04:25;;;;;;;0.23;0.23;;;5.10;99.90;;;;;;5027589;28;21169;-87
2021/03/17 01:06:50;;;;;;;0.10;0.10;;;5.10;99.90;;;;;;5016892;28;20250;-87
2021/03/17 01:09:17;;;;;;;0.10;0.10;;;5.10;99.90;;;;;;4996324;28;20215;-87
2021/03/17 01:11:43;;;;;;;0.20;0.20;;;5.20;99.90;;;;;;5013467;28;20210;-88
2021/03/17 01:14:10;;;;;;;0.10;0.10;;;5.20;99.90;;;;;;5026148;28;20190;-87
2021/03/17 01:16:37;;;;;;;0.10;0.10;;;5.20;99.90;;;;;;5002965;28;20289;-87
2021/03/17 01:19:03;;;;;;;0.10;0.10;;;5.20;99.90;;;;;;5010296;28;20316;-87
2021/03/17 01:21:29;;;;;;;0.20;0.20;;;5.20;99.90;;;;;;5044102;28;20804;-87
2021/03/17 01:23:54;;;;;;;1.80;0.53;;;5.20;99.90;;;;;;5029316;28;20217;-87
2021/03/17 01:26:20;;;;;;;0.10;0.10;;;5.20;99.90;;;;;;5027419;28;20225;-87
2021/03/17 01:28:46;;;;;;;0.20;0.20;;;5.20;99.90;;;;;;4995986;28;20244;-87
2021/03/17 01:31:12;;;;;;;0.20;0.20;;;5.20;99.90;;;;;;5012358;28;20248;-87
2021/03/17 01:33:37;;;;;;;0.63;0.37;;;5.30;99.90;;;;;;5028631;28;20209;-87
2021/03/17 01:36:04;;;;;;;0.10;0.10;;;5.30;99.90;;;;;;5005810;28;20225;-87
2021/03/17 01:38:29;;;;;;;0.40;0.40;;;5.30;99.90;;;;;;5014951;28;20237;-87
2021/03/17 01:40:56;;;;;;;0.20;0.20;;;5.30;99.90;;;;;;5030038;28;20186;-87
2021/03/17 01:43:23;;;;;;;0.10;0.10;;;5.20;99.90;;;;;;4997705;28;20186;-87
2021/03/17 01:45:50;;;;;;;0.30;0.30;;;5.20;99.90;;;;;;4995843;28;20206;-87
2021/03/17 01:48:17;;;;;;;0.20;0.20;;;5.20;99.90;;;;;;5013033;28;20263;-87
2021/03/17 01:50:45;;;;;;;0.10;0.10;;;5.20;99.90;;;;;;5028774;28;20214;-87
2021/03/17 01:53:14;;;;;;;1.13;0.53;;;5.20;99.90;;;;;;5046499;28;20209;-87
2021/03/17 01:55:41;;;;;;;0.20;0.20;;;5.20;99.90;;;;;;5029125;28;20266;-87
2021/03/17 01:58:08;;;;;;;0.10;0.10;;;5.20;99.90;;;;;;5028686;28;20213;-87
2021/03/17 02:00:34;;;;;;;0.13;0.13;;;5.10;99.90;;;;;;5012733;28;20213;-86
2021/03/17 02:03:00;;;;;;;0.30;0.20;;;5.20;99.90;;;;;;5003357;28;20293;-87
2021/03/17 02:05:33;;;;;;;0.10;0.10;;;5.20;99.90;;;;;;4993649;28;20227;-87
2021/03/17 02:08:05;;;;;;;0.33;0.33;;;5.20;99.90;;;;;;5025332;28;20186;-87
2021/03/17 02:10:32;;;;;;;0.60;0.60;;;5.20;99.90;;;;;;4987637;28;20201;-87
2021/03/17 02:13:51;;;;;;;0.30;0.30;;;5.30;99.90;;;;;;5025773;28;20229;-87
2021/03/17 02:16:46;;;;;;;0.30;0.30;;;5.20;99.90;;;;;;4945972;28;20327;-87
2021/03/17 02:19:12;;;;;;;0.50;0.50;;;5.30;99.90;;;;;;4945999;28;20268;-87
2021/03/17 02:21:55;;;;;;;1.63;1.53;;;5.30;99.90;;;;;;5002469;28;20600;-87
2021/03/17 02:24:31;;;;;;;0.20;0.20;;;5.20;99.90;;;;;;5045481;28;20224;-87
2021/03/17 02:27:16;;;;;;;0.17;0.17;;;5.30;99.90;;;;;;5046487;28;20217;-87
2021/03/17 02:30:14;;;;;;;0.10;0.10;;;5.20;99.90;;;;;;5027921;28;20218;-87
2021/03/17 02:32:51;;;;;;;0.20;0.20;;;5.20;99.90;;;;;;4956348;28;20721;-87
2021/03/17 02:35:23;;;;;;;0.20;0.20;;;5.20;99.90;;;;;;5024889;28;20246;-87
2021/03/17 02:37:50;;;;;;;0.97;0.97;;;5.20;99.90;;;;;;5027324;28;20670;-86
2021/03/17 02:40:32;;;;;;;0.10;0.10;;;5.20;99.90;;;;;;5027581;28;20210;-87
2021/03/17 02:43:10;;;;;;;0.20;0.20;;;5.20;99.90;;;;;;5028138;28;20210;-87
2021/03/17 02:45:38;;;;;;;0.20;0.20;;;5.20;99.90;;;;;;5027851;28;20201;-87
2021/03/17 02:48:12;;;;;;;0.23;0.23;;;5.10;99.90;;;;;;5027749;28;20214;-87
2021/03/17 02:50:43;;;;;;;0.20;0.20;;;5.00;99.90;;;;;;5045709;28;20218;-87
2021/03/17 02:53:13;;;;;;;0.10;0.10;;;5.00;99.90;;;;;;5044974;28;20186;-86
2021/03/17 02:55:47;;;;;;;0.20;0.20;;;5.00;99.90;;;;;;5046880;28;20214;-87
2021/03/17 02:58:13;;;;;;;0.10;0.10;;;5.00;99.90;;;;;;5028015;28;20921;-87
2021/03/17 03:00:39;;;;;;;0.10;0.10;;;5.00;99.90;;;;;;5012005;28;20731;-87
2021/03/17 03:03:06;;;;;;;0.47;0.47;;;5.00;99.90;;;;;;5011530;28;20201;-87
2021/03/17 03:05:33;;;;;;;0.10;0.10;;;5.00;99.90;;;;;;4992301;28;20224;-87
2021/03/17 03:08:00;;;;;;;0.20;0.20;;;5.10;99.90;;;;;;5008140;28;20266;-87
2021/03/17 03:10:29;;;;;;;0.20;0.20;;;5.10;99.90;;;;;;5012266;28;20213;-87
2021/03/17 03:12:56;;;;;;;0.20;0.20;;;5.10;99.90;;;;;;5043800;28;20206;-87
2021/03/17 03:15:25;;;;;;;1.07;0.97;;;5.10;99.90;;;;;;5027333;28;20237;-88
2021/03/17 03:17:51;;;;;;;1.40;0.33;;;5.10;99.90;;;;;;5027622;28;20279;-86
2021/03/17 03:20:20;;;;;;;0.77;0.53;;;5.10;99.90;;;;;;5007926;28;20248;-86
2021/03/17 03:22:47;;;;;;;0.30;0.30;;;5.10;99.90;;;;;;5008723;28;20666;-86
2021/03/17 03:25:16;;;;;;;0.93;0.93;;;5.00;99.90;;;;;;5009887;28;20221;-86
2021/03/17 03:27:44;;;;;;;0.30;0.30;;;5.10;99.90;;;;;;5027707;28;20224;-86
2021/03/17 03:30:17;;;;;;;0.20;0.20;;;5.10;99.90;;;;;;5017329;28;20946;-87
2021/03/17 03:32:44;;;;;;;0.20;0.20;;;5.10;99.90;;;;;;5012650;28;20869;-87
2021/03/17 03:35:14;;;;;;;0.10;0.10;;;5.00;99.90;;;;;;5045504;28;20205;-86
2021/03/17 03:37:40;;;;;;;0.20;0.20;;;5.00;99.90;;;;;;5028709;28;20285;-87
2021/03/17 03:40:16;;;;;;;0.27;0.27;;;4.90;99.90;;;;;;5027494;28;20320;-87
2021/03/17 03:42:43;;;;;;;0.20;0.20;;;4.90;99.90;;;;;;5027077;28;20652;-87
2021/03/17 03:45:11;;;;;;;0.13;0.13;;;4.90;99.90;;;;;;4993995;28;20745;-87
2021/03/17 03:47:37;;;;;;;0.40;0.40;;;4.90;99.90;;;;;;5007034;28;20214;-87
2021/03/17 03:50:04;;;;;;;0.20;0.20;;;4.90;99.90;;;;;;5008541;28;20389;-87
2021/03/17 03:52:40;;;;;;;0.10;0.10;;;4.90;99.90;;;;;;5011628;28;20194;-87
2021/03/17 03:55:12;;;;;;;0.30;0.30;;;4.80;99.90;;;;;;5026957;28;20581;-86
2021/03/17 03:57:49;;;;;;;0.30;0.30;;;4.80;99.90;;;;;;5027178;28;20217;-87
2021/03/17 04:00:21;;;;;;;3.13;0.73;;;4.80;99.90;;;;;;5027016;28;22795;-87
2021/03/17 04:02:50;;;;;;;0.30;0.30;;;4.80;99.90;;;;;;5026546;28;20216;-88
2021/03/17 04:05:19;;;;;;;0.20;0.20;;;4.70;99.90;;;;;;5043401;28;21452;-87
2021/03/17 04:07:47;;;;;;;2.83;0.53;;;4.70;99.90;;;;;;5027479;28;20273;-87
2021/03/17 04:10:16;;;;;;;0.20;0.20;;;4.80;99.90;;;;;;5026552;28;20700;-86
2021/03/17 04:12:43;;;;;;;0.10;0.10;;;4.80;99.90;;;;;;5010719;28;20302;-87
2021/03/17 04:15:13;;;;;;;0.10;0.10;;;4.70;99.90;;;;;;5010022;28;20214;-87
2021/03/17 04:17:49;;;;;;;0.10;0.10;;;4.50;99.90;;;;;;5026929;28;20642;-87
2021/03/17 04:20:18;;;;;;;0.90;0.83;;;4.50;99.90;;;;;;5026162;28;20237;-87
2021/03/17 04:22:45;;;;;;;0.20;0.20;;;4.50;99.90;;;;;;5021289;28;20190;-87
2021/03/17 04:25:14;;;;;;;0.20;0.20;;;4.50;99.90;;;;;;4975856;28;20222;-87
2021/03/17 04:27:46;;;;;;;0.20;0.20;;;4.40;99.90;;;;;;5026510;28;20241;-87
2021/03/17 04:30:14;;;;;;;0.10;0.10;;;4.40;99.90;;;;;;5026762;28;20229;-87
2021/03/17 04:32:43;;;;;;;0.20;0.20;;;4.40;99.90;;;;;;5024958;28;20213;-87
2021/03/17 04:35:10;;;;;;;0.47;0.47;;;4.40;99.90;;;;;;5040750;28;20543;-87
2021/03/17 04:37:40;;;;;;;0.13;0.13;;;4.50;99.90;;;;;;4991538;28;20182;-87
2021/03/17 04:40:07;;;;;;;0.30;0.30;;;4.50;99.90;;;;;;5006457;28;20705;-87
2021/03/17 04:42:33;;;;;;;0.10;0.10;;;4.50;99.90;;;;;;5005551;28;20304;-87
2021/03/17 04:45:00;;;;;;;0.10;0.10;;;4.50;99.90;;;;;;4974238;28;20214;-87
2021/03/17 04:47:26;;;;;;;2.73;0.40;;;4.60;99.90;;;;;;5010412;28;20858;-87
2021/03/17 04:49:55;;;;;;;0.20;0.20;;;4.60;99.90;;;;;;5010498;28;20236;-87
2021/03/17 04:52:23;;;;;;;0.30;0.30;;;4.60;99.90;;;;;;5009338;28;20218;-86
2021/03/17 04:54:51;;;;;;;0.43;0.43;;;4.70;99.90;;;;;;5010693;28;20230;-86
2021/03/17 04:57:21;;;;;;;0.30;0.30;;;4.70;99.90;;;;;;4990070;28;20218;-87
2021/03/17 04:59:49;;;;;;;14.23;2.10;;;4.70;99.90;;;;;;5030521;28;20221;-87
2021/03/17 05:02:20;;;;;;;0.10;0.10;;;4.80;99.90;;;;;;5025490;28;20328;-87
2021/03/17 05:04:48;;;;;;;0.30;0.30;;;4.80;99.90;;;;;;5027315;28;20538;-87
2021/03/17 05:07:15;;;;;;;0.43;0.43;;;4.80;99.90;;;;;;5024387;28;20221;-86
2021/03/17 05:09:41;;;;;;;0.80;0.80;;;4.90;99.90;;;;;;5011159;28;20288;-87
2021/03/17 05:12:09;;;;;;;0.40;0.40;;;4.90;99.90;;;;;;4998617;28;20233;-87
2021/03/17 05:14:36;;;;;;;1.80;0.63;;;5.00;99.90;;;;;;4996579;28;20284;-87
2021/03/17 05:17:04;;;;;;;0.20;0.20;;;4.90;99.90;;;;;;5006159;28;20191;-86
2021/03/17 05:19:30;;;;;;;0.20;0.20;;;4.80;99.90;;;;;;5003366;28;20204;-86
2021/03/17 05:21:58;;;;;;;0.40;0.30;;;4.80;99.90;;;;;;5009648;28;20237;-86
2021/03/17 05:24:26;;;;;;;0.20;0.20;;;4.80;99.90;;;;;;5025725;28;20582;-86
2021/03/17 05:26:54;;;;;;;1.90;1.53;;;4.70;99.90;;;;;;5025691;28;20242;-86
2021/03/17 05:29:21;;;;;;;0.20;0.20;;;4.70;99.90;;;;;;5025779;28;20224;-87
2021/03/17 05:31:52;;;;;;;0.43;0.43;;;4.60;99.90;;;;;;4993189;28;20191;-86
2021/03/17 05:34:18;;;;;;;0.53;0.53;;;4.60;99.90;;;;;;5008768;28;20234;-86
2021/03/17 05:36:43;;;;;;;0.50;0.50;;;4.70;99.90;;;;;;4988570;28;20285;-87
2021/03/17 05:39:09;;;;;;;0.60;0.60;;;4.70;99.90;;;;;;4968752;28;20322;-86
2021/03/17 05:41:35;;;;;;;0.27;0.27;;;4.60;99.90;;;;;;4978307;28;20225;-85
2021/03/17 05:44:02;;;;;;;2.47;0.60;;;4.50;99.90;;;;;;5026350;28;20210;-86
2021/03/17 05:46:28;;;;;;;0.20;0.20;;;4.50;99.90;;;;;;5024505;28;20661;-86
2021/03/17 05:48:58;;;;;;;1.27;0.67;;;4.40;99.90;;;;;;5025730;28;20243;-87
2021/03/17 05:51:24;;;;;;;1.80;0.57;;;4.40;99.90;;;;;;5024938;28;20593;-87
2021/03/17 05:53:50;;;;;;;3.10;2.83;;;4.40;99.90;;;;;;5016391;28;20696;-87
2021/03/17 05:56:16;;;;;;;0.43;0.43;;;4.50;99.90;;;;;;4991588;28;20222;-86
2021/03/17 05:58:43;;;;;;;0.60;0.60;;;4.40;99.90;;;;;;5027546;28;20273;-87
2021/03/17 06:01:15;;;;;;;2.50;1.43;;;4.40;99.90;;;;;;5007496;28;20266;-87
2021/03/17 06:03:42;;;;;;;0.70;0.70;;;4.40;99.90;;;;;;5003891;28;20765;-88
2021/03/17 06:06:09;;;;;;;0.37;0.37;;;4.30;99.90;;;;;;4995602;28;20225;-87
2021/03/17 06:08:43;;;;;;;1.60;0.80;;;4.30;99.90;;;;;;5008673;28;20253;-87
2021/03/17 06:11:11;;;;;;;0.30;0.30;;;4.40;99.90;;;;;;5025277;28;20179;-88
2021/03/17 06:13:40;;;;;;;0.43;0.30;;;4.40;99.90;;;;;;5028679;28;20623;-88
2021/03/17 06:16:08;;;;;;;0.30;0.30;;;4.50;99.90;;;;;;5008743;28;20688;-87
2021/03/17 06:18:43;;;;;;;3.47;1.10;;;4.60;99.90;;;;;;5025580;28;20277;-88
2021/03/17 06:21:10;;;;;;;1.23;0.60;;;4.60;99.90;;;;;;5037861;28;20240;-89
2021/03/17 06:23:36;;;;;;;2.27;0.63;;;4.60;99.90;;;;;;5039244;28;20211;-88
2021/03/17 06:26:02;;;;;;;2.00;1.90;;;4.50;99.90;;;;;;4985576;28;20190;-88
2021/03/17 06:28:28;;;;;;;0.20;0.20;;;4.50;99.90;;;;;;5030031;28;20553;-87
2021/03/17 06:30:55;;;;;;;0.40;0.40;;;4.50;99.90;;;;;;4995567;28;20214;-87
2021/03/17 06:33:20;;;;;;;0.30;0.30;;;4.60;99.90;;;;;;5011534;28;20581;-88
2021/03/17 06:35:46;;;;;;;0.20;0.20;;;4.50;99.90;;;;;;5028917;28;20218;-88
2021/03/17 06:38:23;;;;;;;2.27;2.10;;;4.60;99.90;;;;;;4995616;28;21270;-87
2021/03/17 06:40:59;;;;;;;0.40;0.40;;;4.70;99.90;;;;;;5013670;28;20182;-88
2021/03/17 06:43:43;;;;;;;0.60;0.60;;;4.70;99.90;;;;;;5028419;28;20693;-87
2021/03/17 06:46:12;;;;;;;2.87;0.73;;;4.80;99.90;;;;;;5045351;28;20213;-88
2021/03/17 06:48:39;;;;;;;0.20;0.20;;;5.10;99.90;;;;;;5027868;28;20206;-87
2021/03/17 06:51:17;;;;;;;3.50;0.80;;;5.90;99.90;;;;;;5019201;28;20210;-87
2021/03/17 06:53:53;;;;;;;1.30;0.33;;;5.80;99.90;;;;;;5044328;28;20316;-87
2021/03/17 06:56:27;;;;;;;1.27;1.17;;;5.60;99.90;;;;;;5028165;28;20230;-87
2021/03/17 06:58:55;;;;;;;2.47;0.93;;;5.50;99.90;;;;;;5029324;28;20666;-87
2021/03/17 07:01:45;;;;;;;0.20;0.20;;;5.40;99.90;;;;;;5025605;28;20230;-87
2021/03/17 07:04:16;;;;;;;0.53;0.53;;;5.40;99.90;;;;;;5026040;28;20221;-88
2021/03/17 07:06:59;;;;;;;0.87;0.60;;;5.80;99.90;;;;;;5027192;28;20611;-87
2021/03/17 07:09:28;;;;;;;0.43;0.30;;;5.50;99.90;;;;;;5043810;28;20213;-87
2021/03/17 07:12:14;;;;;;;0.30;0.30;;;5.30;99.90;;;;;;5027472;28;20229;-87
2021/03/17 07:14:45;;;;;;;1.40;0.30;;;5.50;99.90;;;;;;5011112;28;20233;-88
2021/03/17 07:17:23;;;;;;;2.20;0.77;;;5.50;99.90;;;;;;5027842;28;20174;-88
2021/03/17 07:19:49;;;;;;;0.77;0.77;;;7.10;99.90;;;;;;5045192;28;20208;-87
2021/03/17 07:22:15;;;;;;;0.30;0.30;;;8.20;99.90;;;;;;4975056;28;20223;-88
2021/03/17 07:24:46;;;;;;;1.00;0.83;;;8.60;99.90;;;;;;5006097;28;20717;-88
2021/03/17 07:27:24;;;;;;;0.23;0.23;;;8.20;99.90;;;;;;5010866;28;20213;-88
2021/03/17 07:30:03;;;;;;;1.30;0.70;;;7.60;99.90;;;;;;5019805;28;20219;-88
2021/03/17 07:32:59;;;;;;;0.40;0.40;;;7.90;99.90;;;;;;5011771;28;20209;-88
2021/03/17 07:35:27;;;;;;;0.83;0.83;;;8.80;99.90;;;;;;5027199;28;20643;-89
2021/03/17 07:38:10;;;;;;;0.33;0.33;;;9.40;99.90;;;;;;5028868;28;20194;-88
2021/03/17 07:40:47;;;;;;;0.23;0.23;;;10.30;99.90;;;;;;5027477;28;21363;-87
2021/03/17 07:43:15;;;;;;;0.40;0.40;;;9.60;99.90;;;;;;5010212;28;20208;-89
2021/03/17 07:45:41;;;;;;;0.43;0.43;;;9.20;99.90;;;;;;5010495;28;20220;-86
2021/03/17 07:48:10;;;;;;;0.43;0.40;;;8.70;99.90;;;;;;5027945;28;20301;-89
2021/03/17 07:50:37;;;;;;;2.20;0.30;;;7.50;99.90;;;;;;5026912;28;20263;-87
2021/03/17 07:53:08;;;;;;;0.50;0.50;;;7.90;99.90;;;;;;5009709;28;20565;-86
2021/03/17 07:55:34;;;;;;;0.80;0.80;;;6.70;99.90;;;;;;5026422;28;20225;-87
2021/03/17 07:58:01;;;;;;;0.40;0.40;;;6.30;99.90;;;;;;4991217;28;20222;-86
2021/03/17 08:00:27;;;;;;;0.57;0.57;;;6.10;99.90;;;;;;5042849;28;20209;-86
2021/03/17 08:02:55;;;;;;;13.00;1.13;;;6.00;99.90;;;;;;5030855;28;20218;-86
2021/03/17 08:05:22;;;;;;;0.73;0.73;;;6.10;99.90;;;;;;5009131;28;20300;-87
2021/03/17 08:07:49;;;;;;;0.20;0.20;;;6.00;99.90;;;;;;5011423;28;20250;-88
2021/03/17 08:10:15;;;;;;;0.40;0.40;;;5.90;99.90;;;;;;5044219;28;20214;-87
2021/03/17 08:12:45;;;;;;;1.33;0.23;;;5.80;99.90;;;;;;5028705;28;20581;-86
2021/03/17 08:15:15;;;;;;;0.73;0.60;;;6.20;99.90;;;;;;5012006;28;20217;-89
2021/03/17 08:17:43;;;;;;;5.10;0.80;;;6.20;99.90;;;;;;5033472;28;20214;-88
2021/03/17 08:20:17;;;;;;;0.50;0.50;;;6.30;99.90;;;;;;5011398;28;20222;-87
2021/03/17 08:22:43;;;;;;;0.50;0.50;;;6.30;99.90;;;;;;5045335;28;20189;-86
2021/03/17 08:25:11;;;;;;;3.50;0.47;;;6.00;99.90;;;;;;5027787;28;20221;-88
2021/03/17 08:27:37;;;;;;;0.63;0.63;;;5.80;99.90;;;;;;5009586;28;20261;-88
2021/03/17 08:30:04;;;;;;;0.50;0.50;;;5.90;99.90;;;;;;5034877;28;20300;-86
2021/03/17 08:32:57;;;;;;;0.30;0.30;;;6.00;99.90;;;;;;5026224;28;20598;-87
2021/03/17 08:35:23;;;;;;;0.40;0.40;;;6.20;99.90;;;;;;5028011;28;20246;-88
2021/03/17 08:37:55;;;;;;;1.70;0.40;;;6.50;99.90;;;;;;5029057;28;20708;-88
2021/03/17 08:40:27;;;;;;;1.20;0.80;;;7.10;99.90;;;;;;5007495;28;20234;-86
2021/03/17 08:42:53;;;;;;;0.20;0.20;;;8.00;99.90;;;;;;5023408;28;20233;-85
2021/03/17 08:45:19;;;;;;;0.70;0.60;;;7.10;99.90;;;;;;5026591;28;20210;-85
2021/03/17 08:47:47;;;;;;;0.10;0.10;;;6.60;99.90;;;;;;5010128;28;20723;-87
2021/03/17 08:50:15;;;;;;;0.30;0.20;;;6.40;99.90;;;;;;4993970;28;20178;-88
2021/03/17 08:52:46;;;;;;;3.90;0.83;;;6.70;99.90;;;;;;5027552;28;20192;-88
2021/03/17 08:55:33;;;;;;;1.13;1.03;;;6.90;99.90;;;;;;5014039;28;20218;-88
2021/03/17 08:58:09;;;;;;;0.10;0.10;;;6.80;99.90;;;;;;5030252;28;20232;-88
2021/03/17 09:00:42;;;;;;;1.07;1.07;;;6.60;99.90;;;;;;5013381;28;20591;-89
2021/03/17 09:03:09;;;;;;;0.57;0.57;;;6.50;99.90;;;;;;5028983;28;20713;-90
2021/03/17 09:05:35;;;;;;;0.27;0.27;;;6.50;99.90;;;;;;5040833;28;20232;-89
2021/03/17 09:08:09;;;;;;;1.17;1.07;;;6.70;99.90;;;;;;4994455;28;20678;-90
2021/03/17 09:10:47;;;;;;;1.77;1.67;;;6.70;99.90;;;;;;5048845;28;20288;-88
2021/03/17 09:13:15;;;;;;;0.20;0.20;;;6.90;99.90;;;;;;5030104;28;20292;-88
2021/03/17 09:15:47;;;;;;;0.80;0.80;;;7.00;99.90;;;;;;5029964;28;20221;-89
2021/03/17 09:18:13;;;;;;;4.80;1.07;;;7.00;99.90;;;;;;5031446;28;20835;-88
2021/03/17 09:20:47;;;;;;;0.13;0.13;;;7.10;99.90;;;;;;5030223;28;20233;-91
2021/03/17 09:23:21;;;;;;;0.23;0.23;;;7.10;99.90;;;;;;5029815;28;20182;-88
2021/03/17 09:25:55;;;;;;;8.67;2.50;;;6.80;99.90;;;;;;5014760;28;20189;-87
2021/03/17 09:28:29;;;;;;;3.40;1.13;;;6.80;99.90;;;;;;5030462;28;20217;-87
2021/03/17 09:30:57;;;;;;;0.20;0.13;;;6.60;99.90;;;;;;5030374;28;20225;-89
2021/03/17 09:33:34;;;;;;;0.20;0.20;;;6.60;99.90;;;;;;5028606;28;20697;-86
2021/03/17 09:36:13;;;;;;;0.40;0.40;;;6.80;99.90;;;;;;5030192;28;20263;-87
2021/03/17 09:38:42;;;;;;;0.30;0.30;;;6.80;99.90;;;;;;5030450;28;20756;-87
2021/03/17 09:41:14;;;;;;;0.23;0.23;;;6.80;99.90;;;;;;5030202;28;20228;-90
2021/03/17 09:43:54;;;;;;;0.90;0.87;;;7.10;99.90;;;;;;5030608;28;20243;-87
2021/03/17 09:46:40;;;;;;;0.30;0.30;;;7.30;99.90;;;;;;5029233;28;20210;-88
2021/03/17 09:49:08;;;;;;;1.10;0.40;;;7.20;99.90;;;;;;5047111;28;20300;-86
2021/03/17 09:51:55;;;;;;;0.20;0.20;;;7.10;99.90;;;;;;5028896;28;20790;-89
2021/03/17 09:54:24;;;;;;;1.23;0.60;;;6.90;99.90;;;;;;5029024;28;20974;-90
2021/03/17 09:57:04;;;;;;;2.97;0.60;;;7.00;99.90;;;;;;5025623;28;20206;-87
2021/03/17 09:59:38;;;;;;;0.37;0.30;;;7.60;99.90;;;;;;5012754;28;20218;-88
2021/03/17 10:02:14;;;;;;;0.40;0.40;;;7.90;99.90;;;;;;5019757;28;20264;-86
2021/03/17 10:04:43;;;;;;;0.50;0.50;;;7.90;99.90;;;;;;5030501;28;20170;-88
2021/03/17 10:07:29;;;;;;;0.30;0.30;;;7.80;99.90;;;;;;5010940;28;20246;-88
2021/03/17 10:09:56;;;;;;;4.73;0.83;;;7.80;99.90;;;;;;5044973;28;20296;-88
2021/03/17 10:12:27;;;;;;;4.57;1.17;;;7.60;99.90;;;;;;4999254;28;20257;-90
2021/03/17 10:14:57;;;;;;;1.17;0.33;;;7.60;99.90;;;;;;5015862;28;20229;-88
2021/03/17 10:17:25;;;;;;;0.27;0.27;;;7.60;99.90;;;;;;5029199;28;20213;-90
2021/03/17 10:19:53;;;;;;;0.43;0.30;;;7.80;99.90;;;;;;5046248;28;20205;-88
2021/03/17 10:22:21;;;;;;;5.53;0.87;;;7.50;99.90;;;;;;5028938;28;20835;-88
2021/03/17 10:24:52;;;;;;;0.40;0.40;;;7.60;99.90;;;;;;5012154;28;20926;-89
2021/03/17 10:27:24;;;;;;;0.20;0.20;;;7.80;99.90;;;;;;5028684;28;20262;-88
2021/03/17 10:29:52;;;;;;;0.30;0.30;;;7.70;99.90;;;;;;5028364;28;20218;-89
2021/03/17 10:32:21;;;;;;;0.73;0.33;;;7.90;99.90;;;;;;5027628;28;20308;-88
2021/03/17 10:34:48;;;;;;;0.30;0.30;;;8.20;99.90;;;;;;5030587;28;20206;-88
2021/03/17 10:37:17;;;;;;;0.60;0.60;;;8.20;99.90;;;;;;5029060;28;20208;-86
2021/03/17 10:39:43;;;;;;;0.87;0.60;;;7.80;99.90;;;;;;5012999;28;20228;-88
2021/03/17 10:42:22;;;;;;;0.20;0.20;;;7.80;99.90;;;;;;5010713;28;20206;-88
2021/03/17 10:45:09;;;;;;;0.03;0.03;;;7.70;99.90;;;;;;5046211;28;20252;-87
2021/03/17 10:47:36;;;;;;;0.30;0.30;;;7.50;99.90;;;;;;5028726;28;20249;-88
2021/03/17 10:50:07;;;;;;;0.20;0.20;;;7.40;99.90;;;;;;5027581;28;20601;-88
2021/03/17 10:52:42;;;;;;;0.10;0.10;;;7.20;99.90;;;;;;5046299;28;20167;-89
2021/03/17 10:55:16;;;;;;;0.20;0.20;;;7.10;99.90;;;;;;5027960;28;20229;-89
2021/03/17 10:57:44;;;;;;;2.07;0.40;;;7.40;99.90;;;;;;5027795;28;20217;-91
2021/03/17 11:00:14;;;;;;;0.30;0.30;;;7.40;99.90;;;;;;5011741;28;21228;-87
2021/03/17 11:02:40;;;;;;;0.20;0.20;;;7.50;99.90;;;;;;5027218;28;20626;-87
2021/03/17 11:05:15;;;;;;;0.20;0.20;;;7.60;99.90;;;;;;5010882;28;20650;-88
2021/03/17 11:07:56;;;;;;;0.20;0.20;;;7.60;99.90;;;;;;5046993;28;20772;-88
2021/03/17 11:11:03;;;;;;;3.70;0.60;;;7.90;99.90;;;;;;5044015;28;20236;-88
2021/03/17 11:13:30;;;;;;;0.77;0.63;;;7.80;99.90;;;;;;5027651;28;20288;-88
2021/03/17 11:16:05;;;;;;;0.30;0.30;;;7.70;99.90;;;;;;5026893;28;20240;-88
2021/03/17 11:18:31;;;;;;;2.83;0.93;;;7.70;99.90;;;;;;5027605;28;20789;-88
2021/03/17 11:21:01;;;;;;;0.20;0.20;;;7.80;99.90;;;;;;5036837;28;20235;-86
2021/03/17 11:23:38;;;;;;;0.63;0.30;;;7.80;99.90;;;;;;5007614;28;20253;-88
2021/03/17 11:26:18;;;;;;;0.50;0.50;;;7.50;99.90;;;;;;5009232;28;20194;-87
2021/03/17 11:28:44;;;;;;;0.20;0.20;;;7.70;99.90;;;;;;5030093;28;20213;-89
2021/03/17 11:31:12;;;;;;;0.10;0.10;;;7.60;99.90;;;;;;4994254;28;20257;-88
2021/03/17 11:33:39;;;;;;;0.33;0.33;;;7.60;99.90;;;;;;5025568;28;20237;-87
2021/03/17 11:36:07;;;;;;;0.10;0.10;;;7.40;99.90;;;;;;5027064;28;20222;-88
2021/03/17 11:38:34;;;;;;;0.20;0.20;;;7.20;99.90;;;;;;5027237;28;20221;-87
2021/03/17 11:41:00;;;;;;;0.20;0.20;;;6.80;99.90;;;;;;5026636;28;20194;-87
2021/03/17 11:43:32;;;;;;;0.20;0.20;;;7.10;99.90;;;;;;5012005;28;20194;-87
2021/03/17 11:46:01;;;;;;;0.20;0.20;;;7.10;99.90;;;;;;5040405;28;20237;-87
2021/03/17 11:48:28;;;;;;;0.63;0.63;;;7.00;99.90;;;;;;5010488;28;20214;-87
2021/03/17 11:50:55;;;;;;;0.40;0.40;;;6.80;99.90;;;;;;5021192;28;20210;-87
2021/03/17 11:53:21;;;;;;;2.53;0.80;;;6.90;99.90;;;;;;5022766;28;20236;-87
2021/03/17 11:55:48;;;;;;;0.23;0.23;;;7.00;99.90;;;;;;4992395;28;20206;-87
2021/03/17 11:58:15;;;;;;;0.20;0.20;;;7.80;99.90;;;;;;5009829;28;20313;-88
2021/03/17 12:00:41;;;;;;;0.40;0.33;;;8.40;99.90;;;;;;5026703;28;20293;-87
2021/03/17 12:03:07;;;;;;;0.30;0.30;;;8.40;99.90;;;;;;4990210;28;20225;-86
2021/03/17 12:05:34;;;;;;;0.20;0.20;;;7.90;99.90;;;;;;5012493;28;20241;-86
2021/03/17 12:08:01;;;;;;;3.90;0.43;;;7.10;99.90;;;;;;4994358;28;20186;-87
2021/03/17 12:10:28;;;;;;;0.30;0.30;;;7.00;99.90;;;;;;5027793;28;20174;-89
2021/03/17 12:12:53;;;;;;;0.10;0.10;;;6.80;99.90;;;;;;5026404;28;20282;-89
2021/03/17 12:15:22;;;;;;;0.57;0.23;;;6.80;99.90;;;;;;5027139;28;20222;-87
2021/03/17 12:17:49;;;;;;;0.83;0.73;;;6.70;99.90;;;;;;5043613;28;20210;-87
2021/03/17 12:20:18;;;;;;;0.30;0.30;;;6.90;99.90;;;;;;5027015;28;20228;-87
2021/03/17 12:22:44;;;;;;;0.97;0.67;;;7.00;99.90;;;;;;5027661;28;20178;-88
2021/03/17 12:25:12;;;;;;;0.23;0.23;;;7.20;99.90;;;;;;5006915;28;20257;-88
2021/03/17 12:27:39;;;;;;;3.20;0.50;;;7.60;99.90;;;;;;4988314;28;20213;-90
2021/03/17 12:30:07;;;;;;;0.20;0.20;;;7.90;99.90;;;;;;5026520;28;20668;-87
2021/03/17 12:32:33;;;;;;;0.30;0.30;;;7.90;99.90;;;;;;4994168;28;20308;-89
2021/03/17 12:34:59;;;;;;;0.50;0.50;;;7.90;99.90;;;;;;5010587;28;20305;-88
2021/03/17 12:37:25;;;;;;;0.93;0.70;;;7.90;99.90;;;;;;5011646;28;20206;-86
2021/03/17 12:39:50;;;;;;;0.20;0.20;;;7.80;99.90;;;;;;5011190;28;20214;-89
2021/03/17 12:42:16;;;;;;;4.43;0.40;;;7.90;99.90;;;;;;4985555;28;20263;-88
2021/03/17 12:44:42;;;;;;;0.40;0.40;;;8.00;99.90;;;;;;4993817;28;20209;-88
2021/03/17 12:47:08;;;;;;;3.40;0.57;;;7.90;99.90;;;;;;5010107;28;20687;-88
2021/03/17 12:49:35;;;;;;;0.40;0.40;;;7.90;99.90;;;;;;4995912;28;20206;-87
2021/03/17 12:52:01;;;;;;;1.43;0.40;;;7.90;99.90;;;;;;4978054;28;20297;-89
2021/03/17 12:54:26;;;;;;;0.50;0.50;;;7.90;99.90;;;;;;5019163;28;20305;-89
2021/03/17 12:56:52;;;;;;;4.37;0.70;;;7.70;99.90;;;;;;4994789;28;20632;-89
2021/03/17 12:59:18;;;;;;;0.20;0.20;;;7.70;99.90;;;;;;5009968;28;20212;-87
2021/03/17 13:01:44;;;;;;;0.20;0.20;;;7.40;99.90;;;;;;5027740;28;20269;-88
2021/03/17 13:04:10;;;;;;;0.53;0.53;;;7.30;99.90;;;;;;4994479;28;20214;-87
2021/03/17 13:06:38;;;;;;;0.40;0.40;;;7.10;99.90;;;;;;5009748;28;20656;-86
2021/03/17 13:09:05;;;;;;;0.20;0.20;;;6.90;99.90;;;;;;5009877;28;20317;-87
2021/03/17 13:11:32;;;;;;;3.60;0.43;;;6.90;99.90;;;;;;5009091;28;20209;-87